METAR AND TAF INFORMATION
METAR FOR UATG
ADDS - METARS form results

(1235 UTC 23 January 2019)
Data provider http://aviationweather.gov/metar/data/
 
METAR text: UATG 231230Z 36005MPS CAVOK M07/M11 Q1028 R32/82//55 NOSIG RMK QFE773/1031
Conditions at: UATG (ATYRAU , KZ) observed 1230 UTC 23 January 2019
Temperature: -7.0°C (19°F)
Dewpoint: -11.0°C (12°F) [RH = 73%]
Pressure (altimeter): 30.35 inches Hg (1028.0 mb)
Winds: from the N (360 degrees) at 12 MPH (10 knots; 5.1 m/s)
Visibility: 6 or more miles (10+ km)
Ceiling: ceiling and visibility are OK
Clouds: unknown
Weather: no significant weather observed at this time

METAR text: UATG 231200Z 01005MPS CAVOK M07/M11 Q1028 R32/82//55 NOSIG RMK QFE773/1030
Conditions at: UATG (ATYRAU , KZ) observed 1200 UTC 23 January 2019
Temperature: -7.0°C (19°F)
Dewpoint: -11.0°C (12°F) [RH = 73%]
Pressure (altimeter): 30.35 inches Hg (1028.0 mb)
Winds: from the N (10 degrees) at 12 MPH (10 knots; 5.1 m/s)
Visibility: 6 or more miles (10+ km)
Ceiling: ceiling and visibility are OK
Clouds: unknown
Weather: no significant weather observed at this time

Forecast for: UATG (ATYRAU , KZ)
Text: TAF UATG 231103Z 2312/2412 VRB02MPS 9999 SCT010 TXM05/2410Z TNM15/2403Z
Forecast period: 1200 to 1400 UTC 23 January 2019
Forecast type: FROM: standard forecast or significant change
Winds: variable direction winds at 5 MPH (4 knots; 2.1 m/s)
Visibility: 6 or more miles 10+ km)
Ceiling: at least 12,000 feet AGL
Clouds: scattered clouds at 1000 feet AGL
Weather: no significant weather forecast for this period
Text: BECMG 2314/2315 3000 BR BKN010
Forecast period: 1400 UTC 23 January 2019 to 0500 UTC 24 January 2019
Forecast type: BECOMING: Conditions expected to become as follows by 1500 UTC 23 January 2019
Winds: variable direction winds at 5 MPH (4 knots; 2.1 m/s)
Visibility: 1.86 miles (2.99 km)
Ceiling: 1000 feet AGL
Clouds: broken clouds at 1000 feet AGL
Weather: BR  (mist)
Text: TEMPO 2317/2404 0300 FZFG VV001
Forecast period: 1700 UTC 23 January 2019 to 0400 UTC 24 January 2019
Forecast type: TEMPORARY: The following changes expected for less than half the time period
Visibility: 0.19 miles (0.31 km)
Ceiling: indefinite ceiling with vertical visibility of 100 feet AGL
Clouds: obscured sky
Weather: FZFG  (freezing fog)
Text: BECMG 2405/2407 10008MPS
Forecast period: 0500 to 1200 UTC 24 January 2019
Forecast type: BECOMING: Conditions expected to become as follows by 0700 UTC 24 January 2019
Winds: from the E (100 degrees) at 18 MPH (16 knots; 8.2 m/s)
Visibility: 1.86 miles (2.99 km)
Ceiling: 1000 feet AGL
Clouds: broken clouds at 1000 feet AGL
Weather: BR  (mist)

 AIRPORT MAP

 RUNWAY INFORMATION

 AIRPORT FREQUENCIES
Type APP Name APP Frequency 123.7 MHZ
Type TWR Name TWR Frequency 118.1 MHZ

 AIRPORT NEAR NAVIGATION AIDS
Type VOR-DME Name Atyrau Frequency 112300 KHZ
Type NDB Name Atyrau Frequency 315 KHZ
Type NDB Name Atyrau Frequency 315 KHZ



2018 Air Astana Virtual Airline